Ana Sayfa
METAR-TAF:

METAR-TAF

Havaalanları :

Paskalya Adası, Şili

Enlem: 27-09S, Boylam: 109-25W, yükseklik: 51 m

Güncel hava durumu gözlemi

Rapor saat 20:00 UTC de 1 saat ve 11 dakika önce yapıldı.
Rüzgar kuzeybatıdan 10 kt
Sıcaklık 21°C
Nem 69%
Basınç 1023 hPa
Görüş mesafesi 10 km veya daha fazla
2200 ft yükseklikte az bulutlu

METAR: SCIP 162000Z 32010KT 9999 FEW022 21/15 Q1023 NOSIG

Saat: 15:11 (21:11 UTC)

Tahmin

Rapor saat 16:30 UTC de 4 saat ve 41 dakika önce yapıldı.
Ayın 16'si saat 18 UTC'den ayın 17'si saat 18 UTC'ye kadar geçerli Tahmin
Rüzgar kuzeybatıdan 4 kt
Görüş mesafesi 10 km veya daha fazla
3000 ft yükseklikte az bulutlu
Dönüşüyor
ayın 17'si saat 04 UTC'den ayın 17'si saat 06 UTC'ye kadar
Rüzgar kuzey/kuzeydoğudan 8 kt

TAF: SCIP 161630Z 1618/1718 32004KT 9999 FEW030 TX22/1620Z TN14/1713Z BECMG 1704/1706 03008KT

4.000'den fazla havaalanı için hava durumu gözlemleri ve tahminleri (METAR ve TAF raporları).

Kullanılabilir istasyonlar harita üzerinde sarı ve kırmızı noktalarla gösterilir.

İstasyonun adını görmek için fareyi noktanın üzerinde gezdirin.

Sonrasında hava gözlem ve tahminlerini görmek için tıklayın.

Haritayı değiştirmek için: yaklaştırmak için siyah artı işaretli yeşil düğmeye ve uzaklaştırmak için de eksi işaretli düğmeye hızla tıklayın; bitişik haritalar için yeşil okları kullanın.


METAR-TAF: